createdAt,value
2023-05-18T00:03:48.415Z,2.60
2023-05-18T00:08:51.516Z,2.80
2023-05-18T00:13:53.757Z,3.10
2023-05-18T00:18:56.601Z,2.58
2023-05-18T00:23:59.108Z,2.50
2023-05-18T00:29:01.724Z,2.55
2023-05-18T00:34:07.303Z,3.17
2023-05-18T00:39:09.627Z,2.60
2023-05-18T00:44:11.841Z,2.67
2023-05-18T00:49:14.309Z,3.08
2023-05-18T00:54:16.717Z,2.40
2023-05-18T00:59:19.877Z,2.17
2023-05-18T01:04:24.699Z,2.67
2023-05-18T01:09:26.826Z,2.25
2023-05-18T01:14:36.461Z,3.15
2023-05-18T01:24:59.494Z,2.42
2023-05-18T01:30:02.278Z,2.60
2023-05-18T01:35:04.918Z,2.80
2023-05-18T01:40:09.304Z,2.08
2023-05-18T01:45:18.817Z,2.60
2023-05-18T01:50:27.871Z,2.75
2023-05-18T01:55:31.187Z,2.60
2023-05-18T02:00:34.528Z,2.72
2023-05-18T02:05:36.708Z,2.92
2023-05-18T02:10:39.030Z,2.63
2023-05-18T02:15:44.502Z,2.70
2023-05-18T02:20:48.945Z,2.97
2023-05-18T02:25:51.437Z,2.47
2023-05-18T02:30:54.076Z,2.58
2023-05-18T02:35:57.241Z,2.88
2023-05-18T02:40:59.365Z,2.67
2023-05-18T02:46:01.954Z,2.85
2023-05-18T02:51:04.670Z,2.97
2023-05-18T02:56:07.679Z,2.65
2023-05-18T03:01:21.289Z,2.65
2023-05-18T03:06:30.326Z,2.55
2023-05-18T03:11:32.703Z,2.85
2023-05-18T03:16:34.841Z,2.80
2023-05-18T03:21:37.000Z,3.13
2023-05-18T03:26:41.716Z,2.42
2023-05-18T03:31:44.104Z,2.75
2023-05-18T03:36:48.010Z,3.40
2023-05-18T03:41:50.875Z,3.13
2023-05-18T03:46:53.880Z,3.30
2023-05-18T03:51:56.693Z,2.78
2023-05-18T03:56:58.851Z,3.03
2023-05-18T04:02:01.374Z,3.22
2023-05-18T04:07:05.998Z,3.10
2023-05-18T04:12:08.431Z,3.03
2023-05-18T04:17:10.540Z,3.08
2023-05-18T04:22:12.671Z,3.00
2023-05-18T04:27:15.341Z,3.22
2023-05-18T04:32:18.458Z,3.10
2023-05-18T04:37:20.818Z,3.40
2023-05-18T04:42:23.176Z,3.53
2023-05-18T04:47:26.060Z,3.05
2023-05-18T04:52:30.753Z,3.42
2023-05-18T04:57:32.839Z,3.38
2023-05-18T05:02:36.389Z,3.10
2023-05-18T05:07:39.799Z,3.95
2023-05-18T05:12:44.718Z,3.60
2023-05-18T05:17:47.994Z,3.33
2023-05-18T05:22:50.964Z,3.08
2023-05-18T05:27:58.242Z,2.80
2023-05-18T05:33:00.496Z,3.38
2023-05-18T05:38:03.827Z,3.10
2023-05-18T05:43:07.249Z,2.97
2023-05-18T05:48:13.371Z,3.40
2023-05-18T05:53:19.870Z,2.80
2023-05-18T05:58:23.601Z,3.08
2023-05-18T06:03:32.467Z,3.05
2023-05-18T06:08:40.942Z,3.88
2023-05-18T06:13:44.340Z,3.08
2023-05-18T06:18:48.953Z,3.60
2023-05-18T06:23:51.211Z,2.90
2023-05-18T06:29:08.886Z,3.25
2023-05-18T06:34:40.641Z,3.40
2023-05-18T06:39:43.099Z,3.72
2023-05-18T06:44:46.738Z,3.25
2023-05-18T06:49:54.307Z,2.97
2023-05-18T06:54:56.942Z,3.47
2023-05-18T07:00:00.671Z,3.05
2023-05-18T07:05:05.582Z,3.53
2023-05-18T07:10:08.291Z,3.13
2023-05-18T07:15:11.619Z,3.28
2023-05-18T07:20:14.015Z,3.55
2023-05-18T07:25:16.250Z,3.75
2023-05-18T07:30:18.363Z,3.65
2023-05-18T07:35:21.646Z,3.28
2023-05-18T07:40:23.774Z,4.25
2023-05-18T07:45:26.691Z,4.00
2023-05-18T07:50:29.614Z,3.65
2023-05-18T07:55:32.507Z,3.00
2023-05-18T08:00:35.092Z,3.33
2023-05-18T08:05:37.248Z,3.08
2023-05-18T08:10:39.322Z,4.05
2023-05-18T08:15:41.414Z,4.28
2023-05-18T08:20:43.878Z,4.00
2023-05-18T08:25:46.048Z,3.20
2023-05-18T08:30:48.181Z,3.38
2023-05-18T08:35:50.824Z,2.95
2023-05-18T08:41:03.349Z,3.00
2023-05-18T08:46:13.543Z,2.53
2023-05-18T08:51:20.151Z,2.63
2023-05-18T08:56:23.489Z,2.55
2023-05-18T09:01:29.513Z,2.72
2023-05-18T09:06:32.691Z,2.80
2023-05-18T09:11:35.795Z,2.63
2023-05-18T09:16:38.099Z,3.10
2023-05-18T09:21:40.495Z,2.75
2023-05-18T09:26:42.672Z,3.50
2023-05-18T09:31:46.591Z,2.50
2023-05-18T09:36:56.969Z,2.83
2023-05-18T09:41:59.141Z,2.90
2023-05-18T09:47:12.282Z,2.69
2023-05-18T09:52:14.800Z,2.78
2023-05-18T09:57:20.803Z,2.70
2023-05-18T10:02:25.799Z,3.40
2023-05-18T10:07:27.976Z,2.95
2023-05-18T10:12:30.213Z,3.13
2023-05-18T10:17:32.706Z,2.75
2023-05-18T10:22:38.447Z,2.85
2023-05-18T10:27:49.994Z,3.13
2023-05-18T10:32:57.078Z,2.95
2023-05-18T10:37:59.930Z,2.95
2023-05-18T10:43:03.906Z,3.20
2023-05-18T10:48:09.516Z,3.08
2023-05-18T10:53:12.886Z,2.97
2023-05-18T10:58:17.706Z,3.05
2023-05-18T11:03:20.297Z,3.15
2023-05-18T11:08:29.162Z,3.42
2023-05-18T11:13:32.290Z,2.83
2023-05-18T11:18:36.393Z,2.42
2023-05-18T11:23:38.629Z,2.40
2023-05-18T11:28:44.131Z,2.30
2023-05-18T11:33:46.951Z,3.03
2023-05-18T11:38:52.456Z,3.60
2023-05-18T11:44:14.073Z,2.58
2023-05-18T11:49:18.166Z,2.88
2023-05-18T11:54:22.833Z,2.65
2023-05-18T11:59:32.259Z,2.60
2023-05-18T12:04:34.872Z,2.70
2023-05-18T12:09:41.791Z,2.90
2023-05-18T12:14:49.907Z,2.50
2023-05-18T12:19:52.142Z,2.40
2023-05-18T12:24:54.736Z,2.67
2023-05-18T12:29:57.377Z,3.08
2023-05-18T12:35:00.017Z,2.47
2023-05-18T12:40:02.210Z,2.53
2023-05-18T12:45:06.581Z,2.65
2023-05-18T12:50:09.944Z,2.55
2023-05-18T12:55:21.507Z,2.47
2023-05-18T13:00:23.574Z,2.70
2023-05-18T13:05:25.788Z,2.28
2023-05-18T13:10:34.616Z,2.53
2023-05-18T13:15:37.874Z,2.72
2023-05-18T13:20:48.478Z,2.70
2023-05-18T13:25:51.138Z,2.38
2023-05-18T13:30:53.463Z,2.60
2023-05-18T13:35:55.877Z,2.42
2023-05-18T13:40:57.969Z,2.33
2023-05-18T13:46:00.191Z,2.60
2023-05-18T13:51:02.397Z,2.70
2023-05-18T13:56:04.886Z,2.97
2023-05-18T14:01:11.953Z,5.43
2023-05-18T14:06:15.653Z,2.30
2023-05-18T14:11:17.829Z,2.53
2023-05-18T14:16:20.158Z,2.45
2023-05-18T14:21:22.373Z,2.45
2023-05-18T14:26:24.516Z,2.50
2023-05-18T14:31:26.625Z,2.60
2023-05-18T14:36:28.788Z,2.97
2023-05-18T14:41:31.200Z,2.90
2023-05-18T14:46:33.293Z,2.60
2023-05-18T14:51:35.405Z,3.00
2023-05-18T14:56:37.694Z,2.67
2023-05-18T15:01:39.990Z,2.63
2023-05-18T15:06:42.133Z,2.33
2023-05-18T15:11:44.411Z,2.25
2023-05-18T15:16:46.784Z,2.63
2023-05-18T15:21:48.985Z,2.47
2023-05-18T15:26:51.273Z,2.35
2023-05-18T15:31:54.964Z,2.38
2023-05-18T15:36:57.287Z,2.85
2023-05-18T15:41:59.521Z,2.70
2023-05-18T15:47:01.938Z,2.95
2023-05-18T15:52:04.311Z,2.63
2023-05-18T15:57:06.460Z,2.78
2023-05-18T16:02:08.540Z,3.00
2023-05-18T16:07:10.687Z,3.03
2023-05-18T16:12:12.737Z,3.20
2023-05-18T16:17:14.911Z,2.58
2023-05-18T16:22:17.006Z,2.50
2023-05-18T16:27:19.529Z,2.28
2023-05-18T16:32:21.763Z,2.80
2023-05-18T16:37:23.950Z,4.70
2023-05-18T16:42:26.016Z,4.30
2023-05-18T16:47:28.539Z,2.90
2023-05-18T16:52:30.719Z,2.58
2023-05-18T16:57:33.714Z,2.47
2023-05-18T17:02:40.004Z,3.33
2023-05-18T17:07:42.687Z,2.40
2023-05-18T17:12:44.957Z,2.50
2023-05-18T17:17:47.109Z,2.58
2023-05-18T17:22:49.227Z,2.65
2023-05-18T17:27:51.363Z,2.67
2023-05-18T17:32:54.723Z,2.67
2023-05-18T17:37:57.610Z,2.28
2023-05-18T17:42:59.683Z,2.03
2023-05-18T17:48:01.922Z,2.10
2023-05-18T17:53:04.927Z,2.20
2023-05-18T17:58:07.208Z,2.60
2023-05-18T18:03:10.522Z,2.15
2023-05-18T18:08:14.637Z,2.15
2023-05-18T18:13:16.778Z,2.30
2023-05-18T18:18:18.869Z,2.30
2023-05-18T18:23:21.011Z,2.38
2023-05-18T18:28:23.069Z,2.05
2023-05-18T18:33:28.108Z,2.88
2023-05-18T18:38:30.398Z,2.65
2023-05-18T18:43:32.721Z,2.80
2023-05-18T18:48:34.905Z,2.45
2023-05-18T18:53:37.099Z,3.15
2023-05-18T18:58:39.213Z,2.50
2023-05-18T19:03:41.351Z,2.78
2023-05-18T19:08:43.459Z,2.95
2023-05-18T19:13:45.688Z,2.88
2023-05-18T19:18:47.822Z,3.13
2023-05-18T19:23:49.986Z,2.90
2023-05-18T19:28:52.029Z,2.95
2023-05-18T19:33:55.071Z,2.95
2023-05-18T19:38:57.556Z,2.85
2023-05-18T19:43:59.712Z,3.53
2023-05-18T19:49:01.994Z,3.00
2023-05-18T19:54:04.510Z,3.03
2023-05-18T19:59:06.634Z,3.40
2023-05-18T20:04:08.770Z,3.10
2023-05-18T20:09:10.896Z,3.92
2023-05-18T20:14:13.070Z,3.40
2023-05-18T20:19:17.756Z,3.30
2023-05-18T20:24:19.958Z,3.50
2023-05-18T20:29:22.094Z,3.90
2023-05-18T20:34:24.202Z,3.30
2023-05-18T20:39:28.560Z,4.05
2023-05-18T20:44:31.360Z,4.07
2023-05-18T20:49:33.723Z,4.28
2023-05-18T20:54:36.079Z,4.65
2023-05-18T20:59:38.184Z,4.60
2023-05-18T21:04:40.237Z,4.32
2023-05-18T21:09:42.666Z,4.45
2023-05-18T21:14:44.728Z,4.40
2023-05-18T21:19:47.006Z,4.28
2023-05-18T21:24:49.079Z,4.30
2023-05-18T21:29:51.385Z,4.70
2023-05-18T21:34:53.631Z,3.85
2023-05-18T21:39:55.932Z,4.18
2023-05-18T21:44:58.082Z,4.10
2023-05-18T21:50:00.430Z,4.13
2023-05-18T21:55:02.718Z,4.68
2023-05-18T22:00:06.372Z,4.20
2023-05-18T22:05:14.647Z,3.90
2023-05-18T22:10:17.969Z,3.90
2023-05-18T22:15:22.179Z,5.30
2023-05-18T22:20:24.530Z,4.63
2023-05-18T22:25:26.782Z,4.45
2023-05-18T22:30:28.972Z,4.20
2023-05-18T22:35:31.415Z,5.70
2023-05-18T22:40:33.863Z,4.40
2023-05-18T22:45:36.404Z,5.65
2023-05-18T22:50:38.425Z,4.95
2023-05-18T22:55:40.612Z,4.57
2023-05-18T23:00:43.076Z,5.68
2023-05-18T23:05:48.314Z,6.05
2023-05-18T23:10:50.706Z,6.25
2023-05-18T23:15:56.094Z,5.30
2023-05-18T23:20:58.670Z,6.45
2023-05-18T23:26:00.874Z,5.50
2023-05-18T23:31:02.975Z,5.45
2023-05-18T23:36:05.865Z,5.45
2023-05-18T23:41:08.587Z,5.40
2023-05-18T23:46:11.171Z,5.25
2023-05-18T23:51:25.740Z,5.43
2023-05-18T23:56:28.644Z,5.15
